sensor_id;sensor_type;location;lat;lon;timestamp;pressure;altitude;pressure_sealevel;temperature;humidity
15634;BME280;14654;48.898;8.308;2023-05-08T00:00:45;100551.59;;;16.02;100.00
15634;BME280;14654;48.898;8.308;2023-05-08T00:03:10;100555.09;;;16.03;100.00
15634;BME280;14654;48.898;8.308;2023-05-08T00:05:36;100560.25;;;16.04;100.00
15634;BME280;14654;48.898;8.308;2023-05-08T00:08:01;100554.06;;;16.07;100.00
15634;BME280;14654;48.898;8.308;2023-05-08T00:10:27;100558.41;;;16.08;100.00
15634;BME280;14654;48.898;8.308;2023-05-08T00:12:53;100558.38;;;16.09;100.00
15634;BME280;14654;48.898;8.308;2023-05-08T00:15:19;100549.66;;;16.10;100.00
15634;BME280;14654;48.898;8.308;2023-05-08T00:17:44;100559.16;;;16.11;100.00
15634;BME280;14654;48.898;8.308;2023-05-08T00:20:10;100556.66;;;16.08;100.00
15634;BME280;14654;48.898;8.308;2023-05-08T00:22:36;100555.88;;;16.05;100.00
15634;BME280;14654;48.898;8.308;2023-05-08T00:25:02;100562.84;;;16.04;100.00
15634;BME280;14654;48.898;8.308;2023-05-08T00:27:29;100562.03;;;16.02;100.00
15634;BME280;14654;48.898;8.308;2023-05-08T00:29:55;100551.59;;;16.02;100.00
15634;BME280;14654;48.898;8.308;2023-05-08T00:32:20;100555.03;;;16.04;100.00
15634;BME280;14654;48.898;8.308;2023-05-08T00:34:46;100553.31;;;16.03;100.00
15634;BME280;14654;48.898;8.308;2023-05-08T00:37:11;100548.16;;;16.00;100.00
15634;BME280;14654;48.898;8.308;2023-05-08T00:39:36;100548.25;;;15.97;100.00
15634;BME280;14654;48.898;8.308;2023-05-08T00:42:01;100556.06;;;15.97;100.00
15634;BME280;14654;48.898;8.308;2023-05-08T00:44:27;100556.06;;;15.97;100.00
15634;BME280;14654;48.898;8.308;2023-05-08T00:46:52;100550.00;;;15.96;100.00
15634;BME280;14654;48.898;8.308;2023-05-08T00:49:18;100556.06;;;15.97;100.00
15634;BME280;14654;48.898;8.308;2023-05-08T00:51:45;100558.66;;;15.98;100.00
15634;BME280;14654;48.898;8.308;2023-05-08T00:54:12;100562.16;;;15.97;100.00
15634;BME280;14654;48.898;8.308;2023-05-08T00:56:38;100560.47;;;15.96;100.00
15634;BME280;14654;48.898;8.308;2023-05-08T00:59:07;100558.75;;;15.95;100.00
15634;BME280;14654;48.898;8.308;2023-05-08T01:01:36;100558.69;;;15.97;100.00
15634;BME280;14654;48.898;8.308;2023-05-08T01:04:04;100563.00;;;15.98;100.00
15634;BME280;14654;48.898;8.308;2023-05-08T01:06:30;100559.50;;;15.99;100.00
15634;BME280;14654;48.898;8.308;2023-05-08T01:08:56;100560.31;;;16.01;100.00
15634;BME280;14654;48.898;8.308;2023-05-08T01:14:15;100566.38;;;16.03;100.00
15634;BME280;14654;48.898;8.308;2023-05-08T01:17:01;100564.66;;;16.02;100.00
15634;BME280;14654;48.898;8.308;2023-05-08T01:28:21;100565.63;;;15.98;100.00
15634;BME280;14654;48.898;8.308;2023-05-08T01:33:50;100559.59;;;15.96;100.00
15634;BME280;14654;48.898;8.308;2023-05-08T01:36:28;100559.56;;;15.97;100.00
15634;BME280;14654;48.898;8.308;2023-05-08T01:39:17;100555.16;;;15.99;100.00
15634;BME280;14654;48.898;8.308;2023-05-08T01:41:59;100559.50;;;15.99;100.00
15634;BME280;14654;48.898;8.308;2023-05-08T01:44:40;100565.53;;;16.01;100.00
15634;BME280;14654;48.898;8.308;2023-05-08T01:47:09;100564.66;;;16.02;100.00
15634;BME280;14654;48.898;8.308;2023-05-08T01:49:47;100562.03;;;16.02;100.00
15634;BME280;14654;48.898;8.308;2023-05-08T01:52:31;100555.97;;;16.02;100.00
15634;BME280;14654;48.898;8.308;2023-05-08T01:55:03;100566.38;;;16.03;100.00
15634;BME280;14654;48.898;8.308;2023-05-08T01:57:32;100563.81;;;16.02;100.00
15634;BME280;14654;48.898;8.308;2023-05-08T01:59:59;100570.75;;;16.03;100.00
15634;BME280;14654;48.898;8.308;2023-05-08T02:02:27;100574.19;;;16.03;100.00
15634;BME280;14654;48.898;8.308;2023-05-08T02:04:54;100568.91;;;16.05;100.00
15634;BME280;14654;48.898;8.308;2023-05-08T02:07:24;100574.13;;;16.06;100.00
15634;BME280;14654;48.898;8.308;2023-05-08T02:09:50;100574.13;;;16.06;100.00
15634;BME280;14654;48.898;8.308;2023-05-08T02:12:17;100574.97;;;16.07;100.00
15634;BME280;14654;48.898;8.308;2023-05-08T02:14:46;100567.09;;;16.08;100.00
15634;BME280;14654;48.898;8.308;2023-05-08T02:17:15;100563.59;;;16.09;100.00
15634;BME280;14654;48.898;8.308;2023-05-08T02:19:41;100568.81;;;16.09;100.00
15634;BME280;14654;48.898;8.308;2023-05-08T02:22:08;100573.16;;;16.09;100.00
15634;BME280;14654;48.898;8.308;2023-05-08T02:24:34;100561.91;;;16.07;100.00
15634;BME280;14654;48.898;8.308;2023-05-08T02:27:01;100572.34;;;16.07;100.00
15634;BME280;14654;48.898;8.308;2023-05-08T02:29:27;100577.63;;;16.05;100.00
15634;BME280;14654;48.898;8.308;2023-05-08T02:31:54;100575.84;;;16.06;100.00
15634;BME280;14654;48.898;8.308;2023-05-08T02:34:22;100572.34;;;16.07;100.00
15634;BME280;14654;48.898;8.308;2023-05-08T02:36:49;100583.66;;;16.07;100.00
15634;BME280;14654;48.898;8.308;2023-05-08T02:39:16;100585.41;;;16.07;100.00
15634;BME280;14654;48.898;8.308;2023-05-08T02:41:43;100580.19;;;16.07;100.00
15634;BME280;14654;48.898;8.308;2023-05-08T02:44:09;100588.00;;;16.07;100.00
15634;BME280;14654;48.898;8.308;2023-05-08T02:49:28;100580.25;;;16.04;100.00
15634;BME280;14654;48.898;8.308;2023-05-08T02:52:02;100585.53;;;16.02;100.00
15634;BME280;14654;48.898;8.308;2023-05-08T02:54:43;100590.75;;;16.02;100.00
15634;BME280;14654;48.898;8.308;2023-05-08T03:00:11;100584.63;;;16.03;100.00
15634;BME280;14654;48.898;8.308;2023-05-08T03:02:40;100587.25;;;16.03;100.00
15634;BME280;14654;48.898;8.308;2023-05-08T03:05:16;100581.22;;;16.01;100.00
15634;BME280;14654;48.898;8.308;2023-05-08T03:07:44;100588.22;;;15.99;100.00
15634;BME280;14654;48.898;8.308;2023-05-08T03:10:12;100579.53;;;15.98;100.00
15634;BME280;14654;48.898;8.308;2023-05-08T03:12:43;100581.28;;;15.98;100.00
15634;BME280;14654;48.898;8.308;2023-05-08T03:15:18;100583.00;;;15.99;100.00
15634;BME280;14654;48.898;8.308;2023-05-08T03:17:46;100576.06;;;15.98;100.00
15634;BME280;14654;48.898;8.308;2023-05-08T03:20:16;100578.69;;;15.98;100.00
15634;BME280;14654;48.898;8.308;2023-05-08T03:22:43;100578.72;;;15.96;100.00
15634;BME280;14654;48.898;8.308;2023-05-08T03:25:11;100572.63;;;15.96;100.00
15634;BME280;14654;48.898;8.308;2023-05-08T03:27:38;100579.53;;;15.98;100.00
15634;BME280;14654;48.898;8.308;2023-05-08T03:30:05;100573.38;;;16.01;100.00
15634;BME280;14654;48.898;8.308;2023-05-08T03:32:31;100576.81;;;16.03;100.00
15634;BME280;14654;48.898;8.308;2023-05-08T03:35:00;100575.00;;;16.05;100.00
15634;BME280;14654;48.898;8.308;2023-05-08T03:37:28;100576.69;;;16.08;100.00
15634;BME280;14654;48.898;8.308;2023-05-08T03:39:54;100583.59;;;16.09;100.00
15634;BME280;14654;48.898;8.308;2023-05-08T03:42:22;100578.44;;;16.07;100.00
15634;BME280;14654;48.898;8.308;2023-05-08T03:44:49;100583.69;;;16.06;100.00
15634;BME280;14654;48.898;8.308;2023-05-08T03:47:16;100584.63;;;16.03;100.00
15634;BME280;14654;48.898;8.308;2023-05-08T03:49:44;100584.69;;;16.02;100.00
15634;BME280;14654;48.898;8.308;2023-05-08T03:52:13;100581.22;;;16.01;100.00
15634;BME280;14654;48.898;8.308;2023-05-08T03:54:40;100587.19;;;16.05;100.00
15634;BME280;14654;48.898;8.308;2023-05-08T03:57:06;100592.41;;;16.06;100.00
15634;BME280;14654;48.898;8.308;2023-05-08T03:59:50;100587.13;;;16.08;100.00
15634;BME280;14654;48.898;8.308;2023-05-08T04:05:30;100596.66;;;16.10;100.00
15634;BME280;14654;48.898;8.308;2023-05-08T04:10:39;100597.44;;;16.12;100.00
15634;BME280;14654;48.898;8.308;2023-05-08T04:15:35;100597.41;;;16.14;100.00
15634;BME280;14654;48.898;8.308;2023-05-08T04:18:05;100595.63;;;16.14;100.00
15634;BME280;14654;48.898;8.308;2023-05-08T04:20:32;100594.78;;;16.14;100.00
15634;BME280;14654;48.898;8.308;2023-05-08T04:22:58;100596.50;;;16.15;100.00
15634;BME280;14654;48.898;8.308;2023-05-08T04:25:25;100599.13;;;16.15;100.00
15634;BME280;14654;48.898;8.308;2023-05-08T04:27:51;100603.47;;;16.14;100.00
15634;BME280;14654;48.898;8.308;2023-05-08T04:30:17;100606.97;;;16.15;100.00
15634;BME280;14654;48.898;8.308;2023-05-08T04:32:43;100601.75;;;16.13;100.00
15634;BME280;14654;48.898;8.308;2023-05-08T04:35:09;100605.25;;;16.14;100.00
15634;BME280;14654;48.898;8.308;2023-05-08T04:37:34;100600.91;;;16.13;100.00
15634;BME280;14654;48.898;8.308;2023-05-08T04:40:00;100603.53;;;16.13;100.00
15634;BME280;14654;48.898;8.308;2023-05-08T04:42:26;100605.25;;;16.12;100.00
15634;BME280;14654;48.898;8.308;2023-05-08T04:44:52;100607.03;;;16.12;100.00
15634;BME280;14654;48.898;8.308;2023-05-08T04:47:17;100603.53;;;16.11;100.00
15634;BME280;14654;48.898;8.308;2023-05-08T04:49:43;100607.09;;;16.10;100.00
15634;BME280;14654;48.898;8.308;2023-05-08T04:52:08;100613.16;;;16.11;100.00
15634;BME280;14654;48.898;8.308;2023-05-08T04:54:34;100613.19;;;16.09;100.00
15634;BME280;14654;48.898;8.308;2023-05-08T04:56:59;100612.34;;;16.09;100.00
15634;BME280;14654;48.898;8.308;2023-05-08T04:59:25;100618.38;;;16.11;100.00
15634;BME280;14654;48.898;8.308;2023-05-08T05:01:50;100614.88;;;16.12;100.00
15634;BME280;14654;48.898;8.308;2023-05-08T05:04:16;100621.81;;;16.13;100.00
15634;BME280;14654;48.898;8.308;2023-05-08T05:06:41;100613.91;;;16.14;100.00
15634;BME280;14654;48.898;8.308;2023-05-08T05:09:07;100628.66;;;16.17;100.00
15634;BME280;14654;48.898;8.308;2023-05-08T05:11:32;100630.31;;;16.20;100.00
15634;BME280;14654;48.898;8.308;2023-05-08T05:13:58;100631.16;;;16.22;100.00
15634;BME280;14654;48.898;8.308;2023-05-08T05:16:23;100630.25;;;16.23;100.00
15634;BME280;14654;48.898;8.308;2023-05-08T05:18:49;100633.69;;;16.25;100.00
15634;BME280;14654;48.898;8.308;2023-05-08T05:21:14;100633.56;;;16.28;100.00
15634;BME280;14654;48.898;8.308;2023-05-08T05:23:39;100637.00;;;16.30;100.00
15634;BME280;14654;48.898;8.308;2023-05-08T05:26:05;100635.22;;;16.32;100.00
15634;BME280;14654;48.898;8.308;2023-05-08T05:28:30;100638.59;;;16.36;100.00
15634;BME280;14654;48.898;8.308;2023-05-08T05:30:56;100641.13;;;16.39;100.00
15634;BME280;14654;48.898;8.308;2023-05-08T05:33:21;100641.09;;;16.40;100.00
15634;BME280;14654;48.898;8.308;2023-05-08T05:35:47;100654.03;;;16.45;100.00
15634;BME280;14654;48.898;8.308;2023-05-08T05:38:12;100650.41;;;16.49;100.00
15634;BME280;14654;48.898;8.308;2023-05-08T05:40:37;100650.31;;;16.52;100.00
15634;BME280;14654;48.898;8.308;2023-05-08T05:43:03;100646.72;;;16.56;100.00
15634;BME280;14654;48.898;8.308;2023-05-08T05:45:28;100655.34;;;16.60;100.00
15634;BME280;14654;48.898;8.308;2023-05-08T05:47:53;100656.13;;;16.64;100.00
15634;BME280;14654;48.898;8.308;2023-05-08T05:50:19;100649.06;;;16.66;100.00
15634;BME280;14654;48.898;8.308;2023-05-08T05:52:45;100655.25;;;16.63;100.00
15634;BME280;14654;48.898;8.308;2023-05-08T05:55:11;100657.94;;;16.60;100.00
15634;BME280;14654;48.898;8.308;2023-05-08T05:57:36;100662.34;;;16.59;100.00
15634;BME280;14654;48.898;8.308;2023-05-08T06:00:03;100658.84;;;16.59;100.00
15634;BME280;14654;48.898;8.308;2023-05-08T06:02:29;100661.44;;;16.60;100.00
15634;BME280;14654;48.898;8.308;2023-05-08T06:04:54;100658.00;;;16.58;100.00
15634;BME280;14654;48.898;8.308;2023-05-08T06:07:19;100660.63;;;16.58;100.00
15634;BME280;14654;48.898;8.308;2023-05-08T06:09:46;100663.22;;;16.58;100.00
15634;BME280;14654;48.898;8.308;2023-05-08T06:12:11;100663.25;;;16.57;100.00
15634;BME280;14654;48.898;8.308;2023-05-08T06:14:37;100659.75;;;16.58;100.00
15634;BME280;14654;48.898;8.308;2023-05-08T06:17:02;100662.34;;;16.58;100.00
15634;BME280;14654;48.898;8.308;2023-05-08T06:19:28;100667.56;;;16.59;100.00
15634;BME280;14654;48.898;8.308;2023-05-08T06:21:53;100663.16;;;16.61;100.00
15634;BME280;14654;48.898;8.308;2023-05-08T06:24:19;100670.09;;;16.63;100.00
15634;BME280;14654;48.898;8.308;2023-05-08T06:26:44;100676.09;;;16.65;100.00
15634;BME280;14654;48.898;8.308;2023-05-08T06:29:11;100676.97;;;16.65;100.00
15634;BME280;14654;48.898;8.308;2023-05-08T06:31:36;100670.88;;;16.65;100.00
15634;BME280;14654;48.898;8.308;2023-05-08T06:34:01;100670.09;;;16.63;100.00
15634;BME280;14654;48.898;8.308;2023-05-08T06:36:27;100671.84;;;16.62;100.00
15634;BME280;14654;48.898;8.308;2023-05-08T06:38:52;100677.81;;;16.66;100.00
15634;BME280;14654;48.898;8.308;2023-05-08T06:41:18;100675.13;;;16.69;100.00
15634;BME280;14654;48.898;8.308;2023-05-08T06:43:43;100674.16;;;16.73;100.00
15634;BME280;14654;48.898;8.308;2023-05-08T06:46:08;100674.06;;;16.76;100.00
15634;BME280;14654;48.898;8.308;2023-05-08T06:48:34;100680.91;;;16.80;100.00
15634;BME280;14654;48.898;8.308;2023-05-08T06:50:59;100672.06;;;16.86;100.00
15634;BME280;14654;48.898;8.308;2023-05-08T06:53:24;100674.53;;;16.90;100.00
15634;BME280;14654;48.898;8.308;2023-05-08T06:55:50;100670.84;;;16.98;100.00
15634;BME280;14654;48.898;8.308;2023-05-08T06:58:15;100677.66;;;17.03;100.00
15634;BME280;14654;48.898;8.308;2023-05-08T07:00:41;100674.88;;;17.10;100.00
15634;BME280;14654;48.898;8.308;2023-05-08T07:03:07;100671.19;;;17.15;100.00
15634;BME280;14654;48.898;8.308;2023-05-08T07:05:32;100670.16;;;17.21;100.00
15634;BME280;14654;48.898;8.308;2023-05-08T07:07:57;100670.91;;;17.25;100.00
15634;BME280;14654;48.898;8.308;2023-05-08T07:10:22;100673.44;;;17.28;100.00
15634;BME280;14654;48.898;8.308;2023-05-08T07:12:48;100672.50;;;17.30;100.00
15634;BME280;14654;48.898;8.308;2023-05-08T07:15:14;100673.28;;;17.32;100.00
15634;BME280;14654;48.898;8.308;2023-05-08T07:17:39;100676.78;;;17.33;100.00
15634;BME280;14654;48.898;8.308;2023-05-08T07:20:06;100680.16;;;17.36;100.00
15634;BME280;14654;48.898;8.308;2023-05-08T07:22:32;100677.38;;;17.41;100.00
15634;BME280;14654;48.898;8.308;2023-05-08T07:24:57;100675.50;;;17.46;100.00
15634;BME280;14654;48.898;8.308;2023-05-08T07:27:22;100690.03;;;17.55;100.00
15634;BME280;14654;48.898;8.308;2023-05-08T07:29:48;100689.81;;;17.63;100.00
15634;BME280;14654;48.898;8.308;2023-05-08T07:32:13;100675.56;;;17.72;100.00
15634;BME280;14654;48.898;8.308;2023-05-08T07:34:39;100679.56;;;17.83;100.00
15634;BME280;14654;48.898;8.308;2023-05-08T07:37:04;100680.88;;;17.95;100.00
15634;BME280;14654;48.898;8.308;2023-05-08T07:39:30;100671.72;;;18.09;100.00
15634;BME280;14654;48.898;8.308;2023-05-08T07:41:55;100681.81;;;18.21;100.00
15634;BME280;14654;48.898;8.308;2023-05-08T07:44:21;100685.81;;;18.32;100.00
15634;BME280;14654;48.898;8.308;2023-05-08T07:46:46;100686.38;;;18.40;100.00
15634;BME280;14654;48.898;8.308;2023-05-08T07:49:11;100688.81;;;18.46;100.00
15634;BME280;14654;48.898;8.308;2023-05-08T07:51:37;100683.38;;;18.51;100.00
15634;BME280;14654;48.898;8.308;2023-05-08T07:54:03;100681.50;;;18.54;100.00
15634;BME280;14654;48.898;8.308;2023-05-08T07:56:28;100685.75;;;18.58;100.00
15634;BME280;14654;48.898;8.308;2023-05-08T07:58:53;100684.03;;;18.57;100.00
15634;BME280;14654;48.898;8.308;2023-05-08T08:01:19;100686.72;;;18.56;100.00
15634;BME280;14654;48.898;8.308;2023-05-08T08:03:45;100694.47;;;18.59;100.00
15634;BME280;14654;48.898;8.308;2023-05-08T08:06:10;100697.84;;;18.63;100.00
15634;BME280;14654;48.898;8.308;2023-05-08T08:08:36;100690.78;;;18.65;100.00
15634;BME280;14654;48.898;8.308;2023-05-08T08:11:01;100695.03;;;18.67;100.00
15634;BME280;14654;48.898;8.308;2023-05-08T08:13:26;100691.44;;;18.70;100.00
15634;BME280;14654;48.898;8.308;2023-05-08T08:15:52;100680.75;;;18.76;100.00
15634;BME280;14654;48.898;8.308;2023-05-08T08:18:17;100682.97;;;18.87;100.00
15634;BME280;14654;48.898;8.308;2023-05-08T08:20:42;100679.03;;;18.99;100.00
15634;BME280;14654;48.898;8.308;2023-05-08T08:23:08;100681.03;;;19.16;100.00
15634;BME280;14654;48.898;8.308;2023-05-08T08:25:33;100683.00;;;19.33;100.00
15634;BME280;14654;48.898;8.308;2023-05-08T08:27:59;100687.91;;;19.42;100.00
15634;BME280;14654;48.898;8.308;2023-05-08T08:30:24;100684.09;;;19.49;100.00
15634;BME280;14654;48.898;8.308;2023-05-08T08:32:49;100690.69;;;19.60;100.00
15634;BME280;14654;48.898;8.308;2023-05-08T08:35:15;100686.78;;;19.70;100.00
15634;BME280;14654;48.898;8.308;2023-05-08T08:37:41;100691.44;;;19.84;100.00
15634;BME280;14654;48.898;8.308;2023-05-08T08:40:06;100678.69;;;19.97;100.00
15634;BME280;14654;48.898;8.308;2023-05-08T08:42:32;100680.75;;;20.11;100.00
15634;BME280;14654;48.898;8.308;2023-05-08T08:44:58;100683.91;;;20.19;100.00
15634;BME280;14654;48.898;8.308;2023-05-08T08:47:27;100686.41;;;20.22;100.00
15634;BME280;14654;48.898;8.308;2023-05-08T08:49:53;100689.63;;;20.29;100.00
15634;BME280;14654;48.898;8.308;2023-05-08T08:52:30;100691.03;;;20.36;100.00
15634;BME280;14654;48.898;8.308;2023-05-08T08:54:59;100691.63;;;20.43;100.00
15634;BME280;14654;48.898;8.308;2023-05-08T08:57:27;100689.91;;;20.42;100.00
15634;BME280;14654;48.898;8.308;2023-05-08T08:59:54;100681.97;;;20.44;100.00
15634;BME280;14654;48.898;8.308;2023-05-08T09:02:21;100679.94;;;20.50;100.00
15634;BME280;14654;48.898;8.308;2023-05-08T09:04:48;100685.91;;;20.54;100.00
15634;BME280;14654;48.898;8.308;2023-05-08T09:07:14;100698.22;;;20.53;100.00
15634;BME280;14654;48.898;8.308;2023-05-08T09:09:42;100702.88;;;20.47;100.00
15634;BME280;14654;48.898;8.308;2023-05-08T09:12:09;100690.31;;;20.33;100.00
15634;BME280;14654;48.898;8.308;2023-05-08T09:14:34;100695.91;;;20.25;100.00
15634;BME280;14654;48.898;8.308;2023-05-08T09:17:00;100693.09;;;20.09;100.00
15634;BME280;14654;48.898;8.308;2023-05-08T09:19:26;100703.19;;;19.98;100.00
15634;BME280;14654;48.898;8.308;2023-05-08T09:21:52;100703.66;;;19.85;100.00
15634;BME280;14654;48.898;8.308;2023-05-08T09:24:18;100707.41;;;19.79;100.00
15634;BME280;14654;48.898;8.308;2023-05-08T09:26:43;100708.63;;;19.71;100.00
15634;BME280;14654;48.898;8.308;2023-05-08T09:31:39;100708.50;;;19.74;100.00
15634;BME280;14654;48.898;8.308;2023-05-08T09:34:09;100711.63;;;19.84;100.00
15634;BME280;14654;48.898;8.308;2023-05-08T09:36:35;100709.50;;;19.93;100.00
15634;BME280;14654;48.898;8.308;2023-05-08T09:39:02;100697.47;;;20.08;100.00
15634;BME280;14654;48.898;8.308;2023-05-08T09:41:27;100703.28;;;20.17;100.00
15634;BME280;14654;48.898;8.308;2023-05-08T09:44:03;100709.78;;;20.29;100.00
15634;BME280;14654;48.898;8.308;2023-05-08T09:46:29;100709.19;;;20.43;100.00
15634;BME280;14654;48.898;8.308;2023-05-08T09:48:57;100707.22;;;20.48;100.00
15634;BME280;14654;48.898;8.308;2023-05-08T09:51:23;100703.94;;;20.43;100.00
15634;BME280;14654;48.898;8.308;2023-05-08T09:53:53;100705.91;;;20.37;100.00
15634;BME280;14654;48.898;8.308;2023-05-08T09:56:37;100717.00;;;20.44;100.00
15634;BME280;14654;48.898;8.308;2023-05-08T09:59:22;100712.16;;;20.35;100.00
15634;BME280;14654;48.898;8.308;2023-05-08T10:01:49;100712.97;;;20.35;100.00
15634;BME280;14654;48.898;8.308;2023-05-08T10:04:15;100710.31;;;20.37;100.00
15634;BME280;14654;48.898;8.308;2023-05-08T10:06:40;100704.94;;;20.40;100.00
15634;BME280;14654;48.898;8.308;2023-05-08T10:09:10;100709.56;;;20.54;100.00
15634;BME280;14654;48.898;8.308;2023-05-08T10:11:38;100706.34;;;20.68;100.00
15634;BME280;14654;48.898;8.308;2023-05-08T10:14:03;100708.88;;;20.90;100.00
15634;BME280;14654;48.898;8.308;2023-05-08T10:16:29;100701.84;;;21.10;100.00
15634;BME280;14654;48.898;8.308;2023-05-08T10:18:59;100712.59;;;21.24;100.00
15634;BME280;14654;48.898;8.308;2023-05-08T10:21:28;100709.06;;;21.43;100.00
15634;BME280;14654;48.898;8.308;2023-05-08T10:23:55;100709.53;;;21.70;100.00
15634;BME280;14654;48.898;8.308;2023-05-08T10:26:29;100700.28;;;21.98;99.52
15634;BME280;14654;48.898;8.308;2023-05-08T10:28:56;100702.66;;;22.20;98.48
15634;BME280;14654;48.898;8.308;2023-05-08T10:31:27;100702.97;;;22.49;97.89
15634;BME280;14654;48.898;8.308;2023-05-08T10:33:54;100702.94;;;22.67;95.12
15634;BME280;14654;48.898;8.308;2023-05-08T10:36:22;100693.38;;;22.98;95.20
15634;BME280;14654;48.898;8.308;2023-05-08T10:38:48;100698.25;;;23.38;94.45
15634;BME280;14654;48.898;8.308;2023-05-08T10:41:14;100697.63;;;23.65;92.62
15634;BME280;14654;48.898;8.308;2023-05-08T10:43:41;100697.56;;;23.50;89.55
15634;BME280;14654;48.898;8.308;2023-05-08T10:46:13;100692.94;;;23.70;89.61
15634;BME280;14654;48.898;8.308;2023-05-08T10:57:22;100678.75;;;24.32;86.97
15634;BME280;14654;48.898;8.308;2023-05-08T10:59:48;100674.47;;;24.58;85.63
15634;BME280;14654;48.898;8.308;2023-05-08T11:02:13;100670.66;;;24.78;84.08
15634;BME280;14654;48.898;8.308;2023-05-08T11:04:39;100676.69;;;24.95;83.99
15634;BME280;14654;48.898;8.308;2023-05-08T11:07:05;100672.84;;;25.14;84.10
15634;BME280;14654;48.898;8.308;2023-05-08T11:14:34;100670.91;;;24.74;83.74
15634;BME280;14654;48.898;8.308;2023-05-08T11:19:26;100672.75;;;24.14;87.53
15634;BME280;14654;48.898;8.308;2023-05-08T11:24:46;100670.84;;;22.59;91.73
15634;BME280;14654;48.898;8.308;2023-05-08T11:27:12;100669.97;;;21.89;95.09
15634;BME280;14654;48.898;8.308;2023-05-08T11:29:38;100671.44;;;21.60;96.62
15634;BME280;14654;48.898;8.308;2023-05-08T11:32:04;100659.91;;;21.80;96.68
15634;BME280;14654;48.898;8.308;2023-05-08T11:34:44;100667.88;;;21.96;95.63
15634;BME280;14654;48.898;8.308;2023-05-08T11:37:23;100660.44;;;21.69;95.93
15634;BME280;14654;48.898;8.308;2023-05-08T11:39:49;100668.50;;;21.47;97.27
15634;BME280;14654;48.898;8.308;2023-05-08T11:42:32;100671.59;;;21.38;98.38
15634;BME280;14654;48.898;8.308;2023-05-08T11:47:31;100667.75;;;21.26;98.66
15634;BME280;14654;48.898;8.308;2023-05-08T11:50:01;100669.31;;;21.30;99.63
15634;BME280;14654;48.898;8.308;2023-05-08T11:52:26;100676.16;;;21.15;100.00
15634;BME280;14654;48.898;8.308;2023-05-08T11:54:52;100669.28;;;21.12;100.00
15634;BME280;14654;48.898;8.308;2023-05-08T11:57:18;100664.78;;;20.95;100.00
15634;BME280;14654;48.898;8.308;2023-05-08T11:59:43;100669.34;;;20.92;100.00
15634;BME280;14654;48.898;8.308;2023-05-08T12:02:13;100672.97;;;21.08;100.00
15634;BME280;14654;48.898;8.308;2023-05-08T12:04:43;100665.38;;;21.02;100.00
15634;BME280;14654;48.898;8.308;2023-05-08T12:07:09;100674.38;;;20.96;100.00
15634;BME280;14654;48.898;8.308;2023-05-08T12:09:35;100668.06;;;21.00;100.00
15634;BME280;14654;48.898;8.308;2023-05-08T12:12:02;100667.97;;;20.83;100.00
15634;BME280;14654;48.898;8.308;2023-05-08T12:14:28;100671.00;;;20.94;100.00
15634;BME280;14654;48.898;8.308;2023-05-08T12:16:53;100668.56;;;20.90;100.00
15634;BME280;14654;48.898;8.308;2023-05-08T12:19:19;100664.59;;;21.00;100.00
15634;BME280;14654;48.898;8.308;2023-05-08T12:21:45;100666.13;;;20.85;100.00
15634;BME280;14654;48.898;8.308;2023-05-08T12:24:13;100667.63;;;20.51;100.00
15634;BME280;14654;48.898;8.308;2023-05-08T12:26:40;100672.97;;;20.68;100.00
15634;BME280;14654;48.898;8.308;2023-05-08T12:29:06;100662.09;;;20.78;100.00
15634;BME280;14654;48.898;8.308;2023-05-08T12:31:34;100666.28;;;20.82;100.00
15634;BME280;14654;48.898;8.308;2023-05-08T12:34:01;100661.00;;;20.82;100.00
15634;BME280;14654;48.898;8.308;2023-05-08T12:36:27;100665.56;;;20.97;100.00
15634;BME280;14654;48.898;8.308;2023-05-08T12:39:14;100665.19;;;20.67;100.00
15634;BME280;14654;48.898;8.308;2023-05-08T12:41:41;100668.56;;;20.90;99.32
15634;BME280;14654;48.898;8.308;2023-05-08T12:44:16;100665.50;;;20.99;98.91
15634;BME280;14654;48.898;8.308;2023-05-08T12:46:45;100664.19;;;21.27;97.81
15634;BME280;14654;48.898;8.308;2023-05-08T12:49:11;100664.25;;;21.25;96.53
15634;BME280;14654;48.898;8.308;2023-05-08T12:51:36;100659.13;;;21.41;95.68
15634;BME280;14654;48.898;8.308;2023-05-08T12:54:04;100664.09;;;21.47;95.49
15634;BME280;14654;48.898;8.308;2023-05-08T12:56:29;100664.66;;;21.54;94.41
15634;BME280;14654;48.898;8.308;2023-05-08T12:58:58;100659.13;;;21.78;93.96
15634;BME280;14654;48.898;8.308;2023-05-08T13:01:23;100660.19;;;21.91;93.34
15634;BME280;14654;48.898;8.308;2023-05-08T13:03:51;100656.63;;;21.92;93.50
15634;BME280;14654;48.898;8.308;2023-05-08T13:06:19;100657.41;;;21.95;93.13
15634;BME280;14654;48.898;8.308;2023-05-08T13:08:51;100658.88;;;22.00;92.33
15634;BME280;14654;48.898;8.308;2023-05-08T13:11:27;100660.72;;;21.63;92.57
15634;BME280;14654;48.898;8.308;2023-05-08T13:13:53;100654.09;;;21.73;92.68
15634;BME280;14654;48.898;8.308;2023-05-08T13:16:18;100653.94;;;21.76;91.82
15634;BME280;14654;48.898;8.308;2023-05-08T13:18:44;100656.34;;;21.81;92.17
15634;BME280;14654;48.898;8.308;2023-05-08T13:21:09;100644.88;;;22.00;91.58
15634;BME280;14654;48.898;8.308;2023-05-08T13:23:34;100643.31;;;22.13;91.35
15634;BME280;14654;48.898;8.308;2023-05-08T13:25:59;100650.59;;;21.90;91.15
15634;BME280;14654;48.898;8.308;2023-05-08T13:28:25;100653.63;;;22.00;90.78
15634;BME280;14654;48.898;8.308;2023-05-08T13:30:50;100659.19;;;22.12;90.39
15634;BME280;14654;48.898;8.308;2023-05-08T13:33:15;100651.75;;;22.20;90.33